M I D A S
Marine Information and Data Acquisition System
Tripno 2256 of the Zeeleeuw from 2012-01-18 07:40:16 to 2012-01-18 16:54:26
Back to CruiseResearch ActivitiesStationsMapUnderway DataData graphs

EquipmentUnitsComment
TimeDGPSUTC
LatitudeDGPSDM.mWGS84
LongitudeDGPSDM.mWGS84
HeadingGyrodeg 
SOGDGPSknotsSpeed over ground
COGDGPSdegCourse over ground
DepthEcho soundermeters200 kHz
Missing or incorrect values are displayed as -999
Navigation data collected by the RV Zeeleeuw from 2012-01-18 07:39:57 to 2012-01-18 17:03:28
                                                                                    Next 1000 lines
Time Latitude Longitude Heading SOG COG Depth
2012-01-18 07:40:07 51°13.634 2°56.018 110.5 0.1 209 11.2
2012-01-18 07:40:12 51°13.634 2°56.018 109.2 0.1 215 11.2
2012-01-18 07:40:16 51°13.634 2°56.018 108.1 0.2 266 11.2
2012-01-18 07:40:21 51°13.635 2°56.016 107.2 0.8 293 11.2
2012-01-18 07:40:27 51°13.635 2°56.013 106.6 1.3 288 11.3
2012-01-18 07:40:32 51°13.636 2°56.008 106.1 2 292 11.3
2012-01-18 07:40:37 51°13.638 2°56.002 105.6 2.6 290 11.3
2012-01-18 07:40:42 51°13.639 2°55.996 105.4 3.2 291 4.8
2012-01-18 07:40:47 51°13.641 2°55.989 105.9 3.6 289 -999
2012-01-18 07:40:53 51°13.643 2°55.979 105.9 3.9 288 -999
2012-01-18 07:40:57 51°13.644 2°55.971 105.5 4 286 -999
2012-01-18 07:41:02 51°13.645 2°55.962 105.2 4.3 285 -999
2012-01-18 07:41:07 51°13.647 2°55.953 105.1 4.3 285 -999
2012-01-18 07:41:13 51°13.649 2°55.942 105.3 4.2 285 -999
2012-01-18 07:41:18 51°13.651 2°55.934 105.8 4.3 286 -999
2012-01-18 07:41:22 51°13.653 2°55.927 106.6 4.3 287 -999
2012-01-18 07:41:28 51°13.655 2°55.916 107.6 4.2 289 -999
2012-01-18 07:41:33 51°13.657 2°55.908 108.9 4.2 290 -999
2012-01-18 07:41:37 51°13.658 2°55.901 110.4 4.2 289 -999
2012-01-18 07:41:42 51°13.661 2°55.892 111.9 4.2 292 -999
2012-01-18 07:41:47 51°13.663 2°55.884 113 4.2 293 -999
2012-01-18 07:41:53 51°13.667 2°55.874 114.6 4.2 296 -999
2012-01-18 07:41:58 51°13.669 2°55.866 116.4 4.2 297 -999
2012-01-18 07:42:03 51°13.672 2°55.858 117.7 4.3 299 -999
2012-01-18 07:42:07 51°13.675 2°55.851 119.1 4.4 300 -999
2012-01-18 07:42:13 51°13.678 2°55.841 120.3 4.5 301 -999
2012-01-18 07:42:18 51°13.681 2°55.832 121.7 4.5 301 -999
2012-01-18 07:42:23 51°13.685 2°55.823 123.2 4.7 303 -999
2012-01-18 07:42:27 51°13.688 2°55.817 124.8 4.8 305 -999
2012-01-18 07:42:32 51°13.692 2°55.808 126.5 5 308 -999
2012-01-18 07:42:38 51°13.698 2°55.798 128.1 5.1 310 -999
2012-01-18 07:42:43 51°13.702 2°55.789 129.9 5 310 -999
2012-01-18 07:42:47 51°13.706 2°55.783 132 5.1 313 -999
2012-01-18 07:42:53 51°13.712 2°55.773 133.2 5.2 313 -999
2012-01-18 07:42:58 51°13.718 2°55.764 134.1 5.3 317 -999
2012-01-18 07:43:03 51°13.723 2°55.756 134.7 5.3 316 -999
2012-01-18 07:43:07 51°13.727 2°55.749 135.3 5.3 317 -999
2012-01-18 07:43:13 51°13.734 2°55.74 135.8 5.4 318 -999
2012-01-18 07:43:18 51°13.739 2°55.732 136.8 5.4 320 -999
2012-01-18 07:43:23 51°13.745 2°55.724 137.6 5.5 319 -999
2012-01-18 07:43:28 51°13.75 2°55.715 138.2 5.5 319 -999
2012-01-18 07:43:32 51°13.755 2°55.709 138.8 5.4 319 -999
2012-01-18 07:43:38 51°13.762 2°55.7 139.6 5.5 321 -999
2012-01-18 07:43:43 51°13.768 2°55.692 140.5 5.6 321 -999
2012-01-18 07:43:48 51°13.775 2°55.685 141.4 5.7 323 -999
2012-01-18 07:43:52 51°13.78 2°55.679 142.3 5.7 324 -999
2012-01-18 07:43:57 51°13.786 2°55.671 143.1 5.6 325 -999
2012-01-18 07:44:02 51°13.792 2°55.664 144.2 5.6 325 -999
2012-01-18 07:44:07 51°13.798 2°55.657 145.7 5.5 326 -999
2012-01-18 07:44:13 51°13.806 2°55.65 147.9 5.4 329 -999
2012-01-18 07:44:18 51°13.813 2°55.644 149.5 5.4 329 -999
2012-01-18 07:44:23 51°13.819 2°55.638 151.2 5.3 330 -999
2012-01-18 07:44:28 51°13.825 2°55.633 153 5.2 331 -999
2012-01-18 07:44:33 51°13.832 2°55.628 154.8 5.2 334 -999
2012-01-18 07:44:37 51°13.838 2°55.625 156.9 5.1 336 -999
2012-01-18 07:44:43 51°13.846 2°55.62 159.1 5.1 339 -999
2012-01-18 07:44:47 51°13.851 2°55.617 161.6 5.1 342 -999
2012-01-18 07:44:52 51°13.858 2°55.614 164.2 5 344 -999
2012-01-18 07:44:57 51°13.864 2°55.612 166.6 5 346 -999
2012-01-18 07:45:02 51°13.871 2°55.609 169.1 4.9 348 -999
2012-01-18 07:45:07 51°13.877 2°55.607 171.4 4.9 350 -999
2012-01-18 07:45:12 51°13.884 2°55.606 173.8 4.8 352 -999
2012-01-18 07:45:18 51°13.892 2°55.605 176.4 4.7 354 -999
2012-01-18 07:45:23 51°13.899 2°55.605 179.1 4.8 359 -999
2012-01-18 07:45:28 51°13.905 2°55.605 182.3 4.8 2 -999
2012-01-18 07:45:33 51°13.911 2°55.606 185.4 4.6 4 -999
2012-01-18 07:45:38 51°13.917 2°55.607 188.6 4.5 8 -999
2012-01-18 07:45:43 51°13.923 2°55.609 192 4.5 11 -999
2012-01-18 07:45:48 51°13.929 2°55.611 195.5 4.3 15 -999
2012-01-18 07:45:52 51°13.934 2°55.613 199.3 4.1 17 -999
2012-01-18 07:45:57 51°13.938 2°55.616 202.8 3.9 20 -999
2012-01-18 07:46:03 51°13.945 2°55.619 206.1 3.9 21 -999
2012-01-18 07:46:08 51°13.95 2°55.623 209.2 3.9 24 -999
2012-01-18 07:46:13 51°13.954 2°55.626 212.3 3.8 27 -999
2012-01-18 07:46:18 51°13.958 2°55.63 215.4 3.6 30 -999
2012-01-18 07:46:22 51°13.961 2°55.634 218.6 3.4 33 -999
2012-01-18 07:46:27 51°13.965 2°55.638 222 3.4 37 -999
2012-01-18 07:46:33 51°13.969 2°55.644 225.4 3.2 40 -999
2012-01-18 07:46:38 51°13.972 2°55.649 228.6 3 43 -999
2012-01-18 07:46:43 51°13.976 2°55.653 231.4 3 42 -999
2012-01-18 07:46:47 51°13.977 2°55.656 234.2 2.6 46 -999
2012-01-18 07:46:52 51°13.979 2°55.66 237.2 2.3 49 -999
2012-01-18 07:46:58 51°13.982 2°55.664 240.3 2.1 47 -999
2012-01-18 07:47:03 51°13.983 2°55.666 242.7 1.7 46 -999
2012-01-18 07:47:07 51°13.984 2°55.668 245.8 1.3 46 -999
2012-01-18 07:47:12 51°13.985 2°55.668 248.5 0.7 37 12.2
2012-01-18 07:47:17 51°13.985 2°55.668 252.5 0.3 347 12.2
2012-01-18 07:47:23 51°13.986 2°55.667 256.3 0.7 290 -999
2012-01-18 07:47:28 51°13.987 2°55.664 262.2 1.2 290 12.2
2012-01-18 07:47:32 51°13.987 2°55.661 268 1.8 285 12.2
2012-01-18 07:47:37 51°13.988 2°55.656 273.4 2.3 284 12.2
2012-01-18 07:47:42 51°13.989 2°55.65 277.2 2.8 286 12.2
2012-01-18 07:47:47 51°13.991 2°55.644 282.1 3.2 289 12.2
2012-01-18 07:47:52 51°13.993 2°55.636 284.6 3.8 290 -999
2012-01-18 07:47:57 51°13.996 2°55.627 287.1 4.4 294 -999
2012-01-18 07:48:02 51°13.999 2°55.618 288.9 4.8 295 -999
2012-01-18 07:48:07 51°14.002 2°55.608 292.5 5.3 300 -999
2012-01-18 07:48:12 51°14.006 2°55.597 297.5 5.6 302 -999
2012-01-18 07:48:17 51°14.011 2°55.587 301.3 5.9 306 -999
2012-01-18 07:48:22 51°14.016 2°55.576 305.6 6.2 308 -999
2012-01-18 07:48:27 51°14.022 2°55.565 308.1 6.5 312 12.8
2012-01-18 07:48:32 51°14.029 2°55.555 310.6 6.8 314 -999
2012-01-18 07:48:38 51°14.038 2°55.542 312.6 7.1 316 -999
2012-01-18 07:48:42 51°14.044 2°55.534 314.2 7.3 318 -999
2012-01-18 07:48:47 51°14.052 2°55.523 315.9 7.6 320 -999
2012-01-18 07:48:53 51°14.061 2°55.509 317.6 7.8 322 -999
2012-01-18 07:48:57 51°14.069 2°55.5 320 8 323 12.8
2012-01-18 07:49:02 51°14.078 2°55.489 322.1 8.3 325 -999
2012-01-18 07:49:08 51°14.089 2°55.477 323.8 8.4 326 12.8
2012-01-18 07:49:13 51°14.099 2°55.466 324.7 8.6 327 -999
2012-01-18 07:49:17 51°14.108 2°55.458 326.2 8.8 328 -999
2012-01-18 07:49:23 51°14.12 2°55.445 326.7 9 327 -999
2012-01-18 07:49:28 51°14.131 2°55.435 327.5 9.1 330 12.9
2012-01-18 07:49:33 51°14.142 2°55.424 328.4 9.1 329 -999
2012-01-18 07:49:38 51°14.153 2°55.414 328.9 9.2 330 -999
2012-01-18 07:49:43 51°14.164 2°55.403 328.5 9.4 329 -999
2012-01-18 07:49:48 51°14.175 2°55.392 328.6 9.5 330 -999
2012-01-18 07:49:53 51°14.187 2°55.382 330 9.6 331 12.6
2012-01-18 07:49:57 51°14.196 2°55.373 330.1 9.8 329 -999
2012-01-18 07:50:03 51°14.21 2°55.36 329.2 9.9 330 -999
2012-01-18 07:50:08 51°14.223 2°55.349 330.2 10 331 -999
2012-01-18 07:50:13 51°14.234 2°55.337 330.3 10.1 329 -999
2012-01-18 07:50:17 51°14.244 2°55.329 330 10.1 330 -999
2012-01-18 07:50:22 51°14.257 2°55.318 330.6 10.3 331 -999
2012-01-18 07:50:28 51°14.272 2°55.303 330.2 10.4 330 -999
2012-01-18 07:50:33 51°14.284 2°55.292 330.3 10.4 331 -999
2012-01-18 07:50:37 51°14.294 2°55.283 330.7 10.5 331 -999
2012-01-18 07:50:43 51°14.309 2°55.269 330.5 10.5 330 -999
2012-01-18 07:50:48 51°14.323 2°55.258 330.8 10.6 332 12.5
2012-01-18 07:50:53 51°14.335 2°55.247 331.1 10.6 331 -999
2012-01-18 07:50:57 51°14.345 2°55.237 331.1 10.5 331 12.7
2012-01-18 07:51:03 51°14.361 2°55.224 331.6 10.5 331 -999
2012-01-18 07:51:08 51°14.373 2°55.211 330.6 10.6 328 -999
2012-01-18 07:51:13 51°14.386 2°55.199 328.5 10.7 329 12.8
2012-01-18 07:51:17 51°14.396 2°55.189 328.7 10.7 329 12.9
2012-01-18 07:51:22 51°14.409 2°55.177 328.9 10.8 329 12.9
2012-01-18 07:51:27 51°14.422 2°55.165 328.9 10.8 329 13
2012-01-18 07:51:32 51°14.435 2°55.152 328.9 10.9 329 12.9
2012-01-18 07:51:37 51°14.448 2°55.139 329 11 328 12.8
2012-01-18 07:51:41 51°14.458 2°55.129 328.7 11 328 12.8
2012-01-18 07:51:46 51°14.471 2°55.117 328.9 11 330 13
2012-01-18 07:51:51 51°14.484 2°55.104 329.9 11.1 329 13.2
2012-01-18 07:51:57 51°14.501 2°55.089 329.7 11.2 330 13.2
2012-01-18 07:52:01 51°14.511 2°55.079 329.7 11.3 329 13
2012-01-18 07:52:06 51°14.525 2°55.067 329.6 11.3 331 13.1
2012-01-18 07:52:10 51°14.536 2°55.057 330.1 11.4 331 13.3
2012-01-18 07:52:15 51°14.55 2°55.044 329.5 11.4 330 13.6
2012-01-18 07:52:21 51°14.567 2°55.03 329.2 11.5 332 14.1
2012-01-18 07:52:25 51°14.578 2°55.02 329.5 11.5 331 14.1
2012-01-18 07:52:30 51°14.592 2°55.007 328.9 11.5 331 14.1
2012-01-18 07:52:35 51°14.605 2°54.994 327.6 11.5 329 14.2
2012-01-18 07:52:40 51°14.619 2°54.981 327.2 11.5 331 14.2
2012-01-18 07:52:45 51°14.633 2°54.968 327.3 11.6 331 14
2012-01-18 07:52:49 51°14.644 2°54.958 326.2 11.6 329 14
2012-01-18 07:52:54 51°14.658 2°54.945 325.9 11.7 331 13.9
2012-01-18 07:52:59 51°14.673 2°54.932 325.4 11.8 330 14.2
2012-01-18 07:53:05 51°14.691 2°54.919 325.2 12.1 333 13.8
2012-01-18 07:53:09 51°14.702 2°54.907 325.2 12.1 331 13.8
2012-01-18 07:53:13 51°14.713 2°54.896 323.3 12.1 328 13.6
2012-01-18 07:53:19 51°14.731 2°54.879 321.7 12.2 328 13.5
2012-01-18 07:53:24 51°14.745 2°54.865 322.7 12.3 330 13.4
2012-01-18 07:53:29 51°14.76 2°54.85 322 12.3 327 13.1
2012-01-18 07:53:34 51°14.773 2°54.834 319.4 12.3 325 12.5
2012-01-18 07:53:39 51°14.787 2°54.819 319 12.3 326 12.5
2012-01-18 07:53:44 51°14.802 2°54.804 319.9 12.4 327 12.5
2012-01-18 07:53:49 51°14.816 2°54.789 320.3 12.4 327 12.9
2012-01-18 07:53:54 51°14.83 2°54.773 320.1 12.5 326 13
2012-01-18 07:53:59 51°14.845 2°54.758 320.5 12.5 327 13
2012-01-18 07:54:04 51°14.859 2°54.743 321.6 12.5 326 13
2012-01-18 07:54:09 51°14.874 2°54.728 321.4 12.5 326 12.9
2012-01-18 07:54:14 51°14.888 2°54.712 320.8 12.5 326 12.9
2012-01-18 07:54:19 51°14.902 2°54.695 319.1 12.4 323 12.7
2012-01-18 07:54:24 51°14.915 2°54.679 317.4 12.4 323 13
2012-01-18 07:54:29 51°14.928 2°54.662 316.7 12.4 321 13.2
2012-01-18 07:54:34 51°14.941 2°54.644 315.5 12.3 319 13.1
2012-01-18 07:54:39 51°14.954 2°54.626 314.5 12.4 319 12.9
2012-01-18 07:54:45 51°14.971 2°54.606 315 12.4 323 12.7
2012-01-18 07:54:49 51°14.982 2°54.594 317.5 12.4 325 12.6
2012-01-18 07:54:54 51°14.997 2°54.579 320.2 12.4 326 12.5
2012-01-18 07:54:59 51°15.011 2°54.564 322.8 12.5 328 12.6
2012-01-18 07:55:04 51°15.026 2°54.55 323.8 12.5 328 12.4
2012-01-18 07:55:09 51°15.041 2°54.535 324.2 12.5 328 12.2
2012-01-18 07:55:14 51°15.056 2°54.522 325.7 12.5 331 12.1
2012-01-18 07:55:19 51°15.072 2°54.509 327.1 12.6 333 11.8
2012-01-18 07:55:25 51°15.09 2°54.494 328.2 12.6 333 11.8
2012-01-18 07:55:29 51°15.102 2°54.483 328.2 12.5 332 11.8
2012-01-18 07:55:34 51°15.118 2°54.469 327 12.5 330 11.6
2012-01-18 07:55:39 51°15.132 2°54.454 325.1 12.5 328 11.7
2012-01-18 07:55:44 51°15.146 2°54.438 322.9 12.4 325 11.8
2012-01-18 07:55:49 51°15.16 2°54.422 320.7 12.4 324 11.7
2012-01-18 07:55:54 51°15.174 2°54.407 320 12.4 325 11.6
2012-01-18 07:55:59 51°15.188 2°54.39 319.7 12.5 325 11.7
2012-01-18 07:56:04 51°15.203 2°54.375 320.2 12.6 326 11.7
2012-01-18 07:56:09 51°15.217 2°54.359 321 12.6 327 11.8
2012-01-18 07:56:14 51°15.232 2°54.345 322.4 12.6 328 11.8
2012-01-18 07:56:19 51°15.248 2°54.331 324.1 12.7 331 11.9
2012-01-18 07:56:24 51°15.263 2°54.318 325.9 12.7 332 12
2012-01-18 07:56:29 51°15.279 2°54.306 327.5 12.7 334 11.8
2012-01-18 07:56:34 51°15.295 2°54.294 328.8 12.7 334 11.7
2012-01-18 07:56:39 51°15.311 2°54.282 330.3 12.7 336 11.8
2012-01-18 07:56:44 51°15.327 2°54.272 332 12.7 337 11.9
2012-01-18 07:56:49 51°15.343 2°54.259 332.1 12.7 335 11.9
2012-01-18 07:56:54 51°15.358 2°54.247 329.6 12.6 332 12.1
2012-01-18 07:56:59 51°15.373 2°54.232 326.8 12.5 328 12.2
2012-01-18 07:57:04 51°15.388 2°54.216 323.1 12.4 325 12.2
2012-01-18 07:57:09 51°15.401 2°54.2 319.1 12.4 323 12
2012-01-18 07:57:14 51°15.414 2°54.182 315.2 12.3 319 12.2
2012-01-18 07:57:19 51°15.426 2°54.164 314 12.3 319 12.2
2012-01-18 07:57:24 51°15.44 2°54.146 313.4 12.3 319 12.2
2012-01-18 07:57:29 51°15.453 2°54.128 313.8 12.4 320 12.5
2012-01-18 07:57:34 51°15.466 2°54.111 314.5 12.4 320 12.4
2012-01-18 07:57:39 51°15.479 2°54.094 315.2 12.4 321 12.5
2012-01-18 07:57:45 51°15.495 2°54.073 315.4 12.3 320 12.6
2012-01-18 07:57:49 51°15.506 2°54.059 315.4 12.3 320 12.6
2012-01-18 07:57:54 51°15.518 2°54.041 314.4 12.3 318 12.7
2012-01-18 07:57:59 51°15.531 2°54.023 313.5 12.3 318 12.6
2012-01-18 07:58:04 51°15.544 2°54.004 312.9 12.3 317 12.7
2012-01-18 07:58:09 51°15.556 2°53.986 312.5 12.3 317 12.7
2012-01-18 07:58:14 51°15.568 2°53.967 310.9 12.3 316 12.9
2012-01-18 07:58:19 51°15.58 2°53.948 309.2 12.2 314 12.8
2012-01-18 07:58:25 51°15.594 2°53.925 308.6 12.2 314 12.9
2012-01-18 07:58:29 51°15.603 2°53.909 308 12.2 313 12.9
2012-01-18 07:58:34 51°15.615 2°53.889 307.7 12.2 313 13.2
2012-01-18 07:58:39 51°15.626 2°53.869 307 12.2 312 13.1
2012-01-18 07:58:44 51°15.638 2°53.85 307.2 12.2 314 13.2
2012-01-18 07:58:49 51°15.65 2°53.831 308.5 12.3 316 13.2
2012-01-18 07:58:54 51°15.662 2°53.812 309.4 12.2 316 13.3
2012-01-18 07:58:59 51°15.675 2°53.793 310.4 12.3 317 13.3
2012-01-18 07:59:05 51°15.689 2°53.771 311.5 12.2 317 13.3
2012-01-18 07:59:09 51°15.699 2°53.757 312.4 12.3 318 13.4
2012-01-18 07:59:14 51°15.712 2°53.74 314 12.3 320 13.5
2012-01-18 07:59:19 51°15.726 2°53.722 314.4 12.3 319 13.5
2012-01-18 07:59:24 51°15.738 2°53.704 313.9 12.3 319 13.4
2012-01-18 07:59:29 51°15.751 2°53.686 312.8 12.3 318 13.5
2012-01-18 07:59:34 51°15.763 2°53.667 312.7 12.2 318 13.6
2012-01-18 07:59:39 51°15.776 2°53.649 312.2 12.2 316 13.7
2012-01-18 07:59:45 51°15.791 2°53.627 311 12.2 316 13.9
2012-01-18 07:59:49 51°15.8 2°53.612 310.6 12.2 316 13.8
2012-01-18 07:59:54 51°15.812 2°53.592 309.3 12.2 314 14
2012-01-18 07:59:59 51°15.824 2°53.572 307.8 12.2 313 14
2012-01-18 08:00:04 51°15.836 2°53.555 308.3 12.2 316 14
2012-01-18 08:00:09 51°15.849 2°53.537 311.5 12.3 319 14
2012-01-18 08:00:14 51°15.863 2°53.52 313.4 12.3 321 13.8
2012-01-18 08:00:19 51°15.876 2°53.504 315.1 12.3 324 14.1
2012-01-18 08:00:25 51°15.893 2°53.486 318.5 12.4 327 14.3
2012-01-18 08:00:29 51°15.905 2°53.475 322.2 12.4 329 14.1
2012-01-18 08:00:34 51°15.921 2°53.462 324.8 12.5 331 14.1
2012-01-18 08:00:39 51°15.936 2°53.449 326.2 12.5 332 14.1
2012-01-18 08:00:44 51°15.951 2°53.437 326.7 12.5 333 14.1
2012-01-18 08:00:49 51°15.967 2°53.424 327.4 12.5 333 14.1
2012-01-18 08:00:54 51°15.983 2°53.411 327.4 12.6 333 14.2
2012-01-18 08:00:59 51°15.998 2°53.399 327 12.5 333 14.4
2012-01-18 08:01:05 51°16.016 2°53.383 326.7 12.5 331 14.4
2012-01-18 08:01:09 51°16.028 2°53.372 326.6 12.5 331 14.2
2012-01-18 08:01:14 51°16.044 2°53.359 326.3 12.4 332 14.3
2012-01-18 08:01:19 51°16.059 2°53.346 326.9 12.6 332 14.3
2012-01-18 08:01:24 51°16.075 2°53.334 326.9 12.6 333 14.4
2012-01-18 08:01:29 51°16.09 2°53.321 327.4 12.6 333 14.4
2012-01-18 08:01:34 51°16.106 2°53.309 328.9 12.6 335 14.4
2012-01-18 08:01:39 51°16.122 2°53.298 329.9 12.7 336 14.4
2012-01-18 08:01:45 51°16.141 2°53.284 330.9 12.6 336 14.3
2012-01-18 08:01:49 51°16.154 2°53.275 331.5 12.6 336 14.4
2012-01-18 08:01:54 51°16.171 2°53.264 331.6 12.7 337 14.3
2012-01-18 08:01:59 51°16.187 2°53.253 331.6 12.8 337 14.4
2012-01-18 08:02:04 51°16.203 2°53.242 331.1 12.7 335 14.3
2012-01-18 08:02:09 51°16.219 2°53.23 330.8 12.7 336 14.3
2012-01-18 08:02:14 51°16.234 2°53.218 330.2 12.6 335 14.4
2012-01-18 08:02:19 51°16.25 2°53.207 330.5 12.7 336 14.7
2012-01-18 08:02:25 51°16.269 2°53.193 330.9 12.6 335 14.5
2012-01-18 08:02:29 51°16.282 2°53.184 330.4 12.6 335 14.6
2012-01-18 08:02:34 51°16.298 2°53.172 330.3 12.5 335 14.5
2012-01-18 08:02:39 51°16.314 2°53.16 330.5 12.6 336 14.7
2012-01-18 08:02:44 51°16.33 2°53.149 330.3 12.6 335 14.5
2012-01-18 08:02:49 51°16.345 2°53.136 329.9 12.6 334 14.5
2012-01-18 08:02:54 51°16.362 2°53.125 329.2 12.5 334 14.6
2012-01-18 08:02:59 51°16.378 2°53.113 329.5 12.7 335 14.7
2012-01-18 08:03:05 51°16.396 2°53.098 329 12.6 334 14.5
2012-01-18 08:03:09 51°16.408 2°53.088 328.9 12.6 334 14.6
2012-01-18 08:03:14 51°16.424 2°53.076 328.9 12.6 334 14.6
2012-01-18 08:03:19 51°16.44 2°53.064 328.8 12.6 334 14.6
2012-01-18 08:03:24 51°16.456 2°53.051 327.8 12.6 332 14.4
2012-01-18 08:03:29 51°16.471 2°53.038 327.4 12.6 332 14.2
2012-01-18 08:03:34 51°16.486 2°53.025 326.4 12.6 331 14.3
2012-01-18 08:03:39 51°16.502 2°53.011 326 12.7 331 14.5
2012-01-18 08:03:45 51°16.519 2°52.994 325.1 12.5 329 14.4
2012-01-18 08:03:49 51°16.531 2°52.982 323.8 12.4 328 14.3
2012-01-18 08:03:54 51°16.546 2°52.968 323.8 12.5 330 14.3
2012-01-18 08:03:59 51°16.561 2°52.953 323.3 12.6 328 14.3
2012-01-18 08:04:04 51°16.575 2°52.939 322.8 12.5 328 14.1
2012-01-18 08:04:09 51°16.59 2°52.924 323.1 12.5 328 14.2
2012-01-18 08:04:14 51°16.605 2°52.909 323 12.5 327 14
2012-01-18 08:04:19 51°16.62 2°52.895 322.2 12.6 328 13.8
2012-01-18 08:04:25 51°16.638 2°52.878 323.1 12.6 329 13.7
2012-01-18 08:04:29 51°16.649 2°52.867 324.5 12.6 330 13.8
2012-01-18 08:04:34 51°16.665 2°52.854 325.4 12.6 332 13.7
2012-01-18 08:04:39 51°16.681 2°52.842 326.7 12.6 333 13.4
2012-01-18 08:04:44 51°16.697 2°52.83 328.7 12.6 335 13.3
2012-01-18 08:04:49 51°16.713 2°52.818 330 12.6 336 12.9
2012-01-18 08:04:54 51°16.729 2°52.807 330.6 12.5 336 13
2012-01-18 08:04:59 51°16.745 2°52.796 330.9 12.5 336 12.7
2012-01-18 08:05:04 51°16.762 2°52.786 332.5 12.7 340 12.4
2012-01-18 08:05:09 51°16.778 2°52.775 332.5 12.5 336 12.2
2012-01-18 08:05:14 51°16.794 2°52.764 332.9 12.6 338 12.1
2012-01-18 08:05:19 51°16.81 2°52.753 332.5 12.6 336 12
2012-01-18 08:05:25 51°16.83 2°52.74 332.4 12.5 337 11.8
2012-01-18 08:05:29 51°16.843 2°52.731 332.7 12.5 338 12.1
2012-01-18 08:05:34 51°16.859 2°52.72 332.6 12.6 336 12.1
2012-01-18 08:05:39 51°16.875 2°52.709 332.1 12.5 336 11.6
2012-01-18 08:05:45 51°16.894 2°52.694 331 12.5 334 12
2012-01-18 08:05:49 51°16.907 2°52.685 330.7 12.6 334 11.8
2012-01-18 08:05:54 51°16.922 2°52.673 330.1 12.7 335 12.1
2012-01-18 08:06:00 51°16.942 2°52.66 330.9 12.7 337 12.2
2012-01-18 08:06:05 51°16.958 2°52.648 331.4 12.6 336 12.3
2012-01-18 08:06:09 51°16.971 2°52.639 331.6 12.7 335 12.2
2012-01-18 08:06:13 51°16.984 2°52.63 331.1 12.9 336 12.6
2012-01-18 08:06:19 51°17.003 2°52.615 330.8 12.6 335 12.1
2012-01-18 08:06:25 51°17.022 2°52.601 330.2 12.6 334 12.3
2012-01-18 08:06:29 51°17.035 2°52.591 329.5 12.6 333 12.1
2012-01-18 08:06:34 51°17.05 2°52.578 329.3 12.7 334 12
2012-01-18 08:06:39 51°17.066 2°52.565 328.1 12.7 332 11.9
2012-01-18 08:06:45 51°17.085 2°52.552 328.3 12.6 335 12
2012-01-18 08:06:49 51°17.098 2°52.544 330.8 12.5 338 12
2012-01-18 08:06:54 51°17.114 2°52.535 335 12.5 340 12.2
2012-01-18 08:06:59 51°17.132 2°52.526 336.4 12.7 342 12.4
2012-01-18 08:07:04 51°17.149 2°52.517 337.9 13.1 344 12.5
2012-01-18 08:07:09 51°17.166 2°52.51 340.4 13 345 12
2012-01-18 08:07:14 51°17.183 2°52.504 341.9 12.8 346 12.3
2012-01-18 08:07:19 51°17.201 2°52.498 342.5 13.1 348 12.4
2012-01-18 08:07:25 51°17.222 2°52.492 344.2 13 349 12.4
2012-01-18 08:07:29 51°17.236 2°52.488 346.2 13 351 12.4
2012-01-18 08:07:34 51°17.254 2°52.483 347.5 12.9 351 12.3
2012-01-18 08:07:39 51°17.272 2°52.481 348.4 13.1 354 12.4
2012-01-18 08:07:45 51°17.294 2°52.475 349.3 13.1 351 12.7
2012-01-18 08:07:49 51°17.308 2°52.473 349.4 13.1 355 12.8
2012-01-18 08:07:54 51°17.326 2°52.469 349.9 13.1 351 12.4
2012-01-18 08:07:59 51°17.344 2°52.465 349 13.2 353 12.4
2012-01-18 08:08:05 51°17.366 2°52.46 348.8 13.1 351 12.8
2012-01-18 08:08:09 51°17.38 2°52.458 348.5 13 353 12.6
2012-01-18 08:08:14 51°17.398 2°52.453 348.3 13 351 12.6
2012-01-18 08:08:19 51°17.415 2°52.449 347.5 12.9 352 13.1
2012-01-18 08:08:25 51°17.437 2°52.443 347.6 13 350 12.9
2012-01-18 08:08:29 51°17.452 2°52.44 347 13.2 352 12.5
2012-01-18 08:08:34 51°17.469 2°52.436 348.4 13 352 12.6
2012-01-18 08:08:39 51°17.487 2°52.434 349.5 13.2 356 13
2012-01-18 08:08:45 51°17.509 2°52.431 351.3 13 355 12.5
2012-01-18 08:08:49 51°17.523 2°52.429 352.1 13 355 12.7
2012-01-18 08:08:54 51°17.542 2°52.427 352.4 13.1 356 12.8
2012-01-18 08:08:59 51°17.56 2°52.425 352.8 13.1 356 12.7
2012-01-18 08:09:05 51°17.582 2°52.424 353.4 13.3 357 12.4
2012-01-18 08:09:09 51°17.597 2°52.424 354.3 13.3 358 12.7
2012-01-18 08:09:14 51°17.614 2°52.423 355 13.2 358 12.7
2012-01-18 08:09:19 51°17.632 2°52.423 355.5 12.9 -999 12.9
2012-01-18 08:09:24 51°17.651 2°52.422 356.6 13 357 13
2012-01-18 08:09:29 51°17.668 2°52.42 354.3 12.8 356 12.8
2012-01-18 08:09:34 51°17.687 2°52.418 353.6 12.9 357 12.6
2012-01-18 08:09:39 51°17.706 2°52.416 353.6 13.3 357 12.6
2012-01-18 08:09:45 51°17.727 2°52.415 354.1 13.2 359 12.6
2012-01-18 08:09:49 51°17.742 2°52.415 355 13.2 358 12.9
2012-01-18 08:09:54 51°17.761 2°52.415 355.9 13.4 359 12.8
2012-01-18 08:09:59 51°17.779 2°52.414 356.2 13.2 359 12.8
2012-01-18 08:10:05 51°17.801 2°52.415 357.9 13.1 1 12.9
2012-01-18 08:10:09 51°17.816 2°52.414 356.3 13.1 358 12.7
2012-01-18 08:10:14 51°17.835 2°52.413 356.1 13.4 358 12.6
2012-01-18 08:10:20 51°17.856 2°52.413 356.3 13.1 1 13.1
2012-01-18 08:10:25 51°17.875 2°52.412 356 13.2 359 12.9
2012-01-18 08:10:29 51°17.89 2°52.413 356.6 13.5 -999 12.8
2012-01-18 08:10:34 51°17.908 2°52.412 356.5 13.3 358 13.1
2012-01-18 08:10:39 51°17.926 2°52.411 355.8 13.2 -999 13.1
2012-01-18 08:10:45 51°17.948 2°52.412 356.9 13.2 1 12.8
2012-01-18 08:10:49 51°17.963 2°52.411 357 13.2 -999 12.7
2012-01-18 08:10:54 51°17.981 2°52.411 356.6 13.2 359 13
2012-01-18 08:10:59 51°17.999 2°52.41 356 13.3 358 12.8
2012-01-18 08:11:04 51°18.018 2°52.409 356.7 13.3 356 12.8
2012-01-18 08:11:09 51°18.035 2°52.408 354.2 13 356 12.8
2012-01-18 08:11:14 51°18.053 2°52.406 353.4 12.9 356 12.8
2012-01-18 08:11:19 51°18.071 2°52.403 352.8 12.9 355 13
2012-01-18 08:11:25 51°18.093 2°52.399 351.6 13 353 13
2012-01-18 08:11:29 51°18.107 2°52.397 351 13 353 12.9
2012-01-18 08:11:34 51°18.125 2°52.394 350.3 13.1 356 13.1
2012-01-18 08:11:39 51°18.142 2°52.39 350.7 13 353 13
2012-01-18 08:11:44 51°18.161 2°52.388 349.9 13.1 355 13.2
2012-01-18 08:11:49 51°18.178 2°52.385 350.5 12.9 354 12.8
2012-01-18 08:11:54 51°18.196 2°52.382 350.6 12.8 354 13.1
2012-01-18 08:11:59 51°18.214 2°52.377 348.9 12.9 351 13.3
2012-01-18 08:12:04 51°18.231 2°52.374 349.2 12.9 354 13.2
2012-01-18 08:12:09 51°18.249 2°52.371 349.4 12.7 352 13.3
2012-01-18 08:12:14 51°18.267 2°52.366 348.8 12.7 351 13.2
2012-01-18 08:12:19 51°18.285 2°52.363 348.9 13 353 13.3
2012-01-18 08:12:25 51°18.306 2°52.358 348.5 12.8 352 13.1
2012-01-18 08:12:29 51°18.32 2°52.357 350.2 12.7 357 13.5
2012-01-18 08:12:34 51°18.338 2°52.352 351.4 13 353 13.2
2012-01-18 08:12:39 51°18.356 2°52.352 351.4 12.9 357 13.1
2012-01-18 08:12:45 51°18.377 2°52.348 353.1 12.7 354 13.3
2012-01-18 08:12:49 51°18.392 2°52.347 353.1 13 357 13.8
2012-01-18 08:12:54 51°18.409 2°52.347 353.6 12.7 357 13.5
2012-01-18 08:12:59 51°18.427 2°52.346 354.8 12.8 359 13.6
2012-01-18 08:13:05 51°18.449 2°52.345 355.2 13 358 13.9
2012-01-18 08:13:09 51°18.464 2°52.345 356.1 13.1 1 13.7
2012-01-18 08:13:14 51°18.482 2°52.343 356.4 12.9 356 13.7
2012-01-18 08:13:19 51°18.5 2°52.343 354.3 13.1 359 14.1
2012-01-18 08:13:25 51°18.522 2°52.34 354.3 13 356 13.7
2012-01-18 08:13:29 51°18.536 2°52.339 354.2 13 357 13.7
2012-01-18 08:13:34 51°18.555 2°52.337 353.9 13.2 356 13.7
2012-01-18 08:13:39 51°18.572 2°52.337 353.5 13 358 13.9
2012-01-18 08:13:45 51°18.594 2°52.334 353.6 13 356 14.2
2012-01-18 08:13:49 51°18.609 2°52.334 353.9 13.2 359 13.9
2012-01-18 08:13:54 51°18.627 2°52.333 354.6 13.1 358 14.3
2012-01-18 08:13:59 51°18.645 2°52.333 356.1 13.2 -999 14.2
2012-01-18 08:14:05 51°18.667 2°52.332 355.9 13 359 14.1
2012-01-18 08:14:09 51°18.682 2°52.333 356.5 13.1 -999 14.2
2012-01-18 08:14:14 51°18.701 2°52.332 356.6 13.3 359 14.4
2012-01-18 08:14:19 51°18.719 2°52.332 356.8 13.3 -999 14.4
2012-01-18 08:14:25 51°18.741 2°52.332 356.7 13.2 -999 14.2
2012-01-18 08:14:29 51°18.755 2°52.332 356.5 13 -999 14.5
2012-01-18 08:14:34 51°18.773 2°52.333 357.5 13.1 -999 14.8
2012-01-18 08:14:39 51°18.791 2°52.332 356 13 359 14.6
2012-01-18 08:14:44 51°18.81 2°52.331 355.5 13.1 358 14.7
2012-01-18 08:14:49 51°18.828 2°52.33 354.8 13.1 357 14.9
2012-01-18 08:14:53 51°18.842 2°52.328 353.3 13.2 356 14.9
2012-01-18 08:14:59 51°18.863 2°52.325 352.3 13 355 15
2012-01-18 08:15:04 51°18.882 2°52.322 351 13 355 15.1
2012-01-18 08:15:09 51°18.899 2°52.32 351.3 12.9 355 15.4
2012-01-18 08:15:14 51°18.918 2°52.316 350.2 12.9 353 15.3
2012-01-18 08:15:19 51°18.936 2°52.313 350.2 13.1 353 15.4
2012-01-18 08:15:25 51°18.957 2°52.309 349.7 12.9 354 15.4
2012-01-18 08:15:29 51°18.972 2°52.307 349.9 13 355 15.7
2012-01-18 08:15:34 51°18.99 2°52.304 349.9 13 353 15.8
2012-01-18 08:15:39 51°19.008 2°52.302 351 13 357 16
2012-01-18 08:15:44 51°19.026 2°52.3 351.4 12.9 356 16.1
2012-01-18 08:15:49 51°19.044 2°52.297 352 13 355 15.8
2012-01-18 08:15:54 51°19.062 2°52.295 351.3 12.8 355 15.9
2012-01-18 08:15:59 51°19.08 2°52.293 351.4 13 356 16.3
2012-01-18 08:16:04 51°19.097 2°52.29 350.8 12.8 354 16.5
2012-01-18 08:16:09 51°19.116 2°52.287 350.2 12.9 355 16.3
2012-01-18 08:16:14 51°19.134 2°52.284 350.9 13 354 16.6
2012-01-18 08:16:19 51°19.152 2°52.282 350.9 13 356 16.5
2012-01-18 08:16:24 51°19.17 2°52.281 351.8 13.1 358 16.7
2012-01-18 08:16:29 51°19.189 2°52.28 353.1 13.3 357 16.6
2012-01-18 08:16:34 51°19.206 2°52.28 354.1 12.9 -999 16.7
2012-01-18 08:16:39 51°19.224 2°52.278 355 12.6 358 17
2012-01-18 08:16:44 51°19.242 2°52.278 355 13 1 16.7
2012-01-18 08:16:49 51°19.261 2°52.278 356.5 13.1 -999 17.1
2012-01-18 08:16:54 51°19.279 2°52.28 357.5 12.9 2 17.1
2012-01-18 08:16:59 51°19.297 2°52.28 357.9 13.1 1 17
2012-01-18 08:17:05 51°19.319 2°52.282 357.9 13 2 17.1
2012-01-18 08:17:09 51°19.334 2°52.282 358.2 13 2 17.3
2012-01-18 08:17:14 51°19.351 2°52.283 358.4 12.9 1 17.1
2012-01-18 08:17:20 51°19.373 2°52.284 357.9 12.9 2 17.4
2012-01-18 08:17:25 51°19.392 2°52.284 357.6 13.2 1 17.6
2012-01-18 08:17:29 51°19.406 2°52.285 358 13.2 2 17.3
2012-01-18 08:17:33 51°19.421 2°52.286 359.7 13.2 3 17.5
2012-01-18 08:17:39 51°19.442 2°52.287 358.3 13.1 -999 17.5
2012-01-18 08:17:45 51°19.465 2°52.289 358 13.3 3 17.5
2012-01-18 08:17:49 51°19.479 2°52.289 358.4 13.3 1 17.5
2012-01-18 08:17:54 51°19.498 2°52.29 357.9 13.2 2 17.7
2012-01-18 08:17:59 51°19.516 2°52.291 358.6 13.2 2 17.8
2012-01-18 08:18:05 51°19.539 2°52.292 358.4 13.3 2 18
2012-01-18 08:18:09 51°19.553 2°52.293 358.6 13.4 2 18
2012-01-18 08:18:14 51°19.571 2°52.295 358.3 13.2 3 17.9
2012-01-18 08:18:19 51°19.59 2°52.296 359.6 13.3 3 18
2012-01-18 08:18:24 51°19.609 2°52.297 0.1 13.5 3 18.1
2012-01-18 08:18:29 51°19.627 2°52.298 359.4 13.4 2 17.9
2012-01-18 08:18:33 51°19.642 2°52.3 358.9 13.4 3 18
2012-01-18 08:18:39 51°19.664 2°52.301 358.7 13.2 2 17.8
2012-01-18 08:18:44 51°19.682 2°52.303 359.7 13.3 5 18.1
2012-01-18 08:18:49 51°19.701 2°52.302 358.9 13.2 359 18
2012-01-18 08:18:54 51°19.719 2°52.304 357.7 13.2 1 18.1
2012-01-18 08:18:59 51°19.737 2°52.303 357.2 13.2 358 18.4
2012-01-18 08:19:05 51°19.76 2°52.303 355.7 13.3 -999 18.2
2012-01-18 08:19:09 51°19.774 2°52.302 355.9 13.1 359 18.3
2012-01-18 08:19:14 51°19.792 2°52.302 355 13.3 -999 18.4
2012-01-18 08:19:19 51°19.811 2°52.3 355 13.4 357 18.3
2012-01-18 08:19:24 51°19.829 2°52.299 354.4 13.3 359 18.2
2012-01-18 08:19:29 51°19.847 2°52.298 354.3 13.1 357 18.2
2012-01-18 08:19:34 51°19.865 2°52.298 354 13.2 359 18.5
2012-01-18 08:19:39 51°19.884 2°52.296 353 13.3 356 18.5
2012-01-18 08:19:44 51°19.902 2°52.295 353.7 13.2 358 18.4
2012-01-18 08:19:49 51°19.92 2°52.293 353.6 13.2 357 18.6
2012-01-18 08:19:54 51°19.938 2°52.293 353.6 13.1 359 18.7
2012-01-18 08:19:59 51°19.956 2°52.292 354.3 12.9 358 18.4
2012-01-18 08:20:04 51°19.974 2°52.292 354.8 13 -999 18.4
2012-01-18 08:20:09 51°19.993 2°52.29 355.3 13.2 359 18.4
2012-01-18 08:20:14 51°20.011 2°52.29 355.7 13.3 359 18.5
2012-01-18 08:20:19 51°20.029 2°52.289 355.1 13.1 358 18.3
2012-01-18 08:20:25 51°20.051 2°52.289 355.2 13.2 359 18.4
2012-01-18 08:20:29 51°20.065 2°52.288 355.3 13.2 359 18.4
2012-01-18 08:20:34 51°20.084 2°52.287 355.8 13.4 358 18.4
2012-01-18 08:20:39 51°20.102 2°52.287 355.5 13.4 359 18.3
2012-01-18 08:20:45 51°20.124 2°52.287 356.8 13.2 359 18.2
2012-01-18 08:20:49 51°20.138 2°52.288 357.2 13 1 18.4
2012-01-18 08:20:54 51°20.156 2°52.288 357.5 13 -999 18.5
2012-01-18 08:20:59 51°20.175 2°52.289 357.7 13.2 2 18.5
2012-01-18 08:21:04 51°20.193 2°52.29 357.9 13.1 1 18.4
2012-01-18 08:21:09 51°20.211 2°52.29 358.4 13.1 2 18.2
2012-01-18 08:21:14 51°20.23 2°52.291 358.6 13.3 2 18.2
2012-01-18 08:21:19 51°20.248 2°52.291 357.9 13.4 1 18.2
2012-01-18 08:21:25 51°20.27 2°52.292 358.4 13.3 1 18
2012-01-18 08:21:29 51°20.285 2°52.292 357.7 13.3 1 18.1
2012-01-18 08:21:34 51°20.303 2°52.293 357.5 13.3 1 17.7
2012-01-18 08:21:39 51°20.32 2°52.293 357.6 13.1 -999 17.8
2012-01-18 08:21:45 51°20.342 2°52.293 357.2 13.2 -999 17.7
2012-01-18 08:21:49 51°20.356 2°52.294 356.2 13.1 -999 17.4
2012-01-18 08:21:54 51°20.374 2°52.295 357.7 12.9 3 17.2
2012-01-18 08:22:00 51°20.396 2°52.296 357.9 13 2 17
2012-01-18 08:22:05 51°20.415 2°52.297 358.8 13.1 3 17
2012-01-18 08:22:09 51°20.429 2°52.3 0.6 13.1 4 17.1
2012-01-18 08:22:14 51°20.446 2°52.302 0.4 12.8 5 16.9
2012-01-18 08:22:19 51°20.465 2°52.305 0.9 13 5 16.9
2012-01-18 08:22:25 51°20.486 2°52.309 3.2 13.1 6 17.1
2012-01-18 08:22:29 51°20.5 2°52.31 2 12.8 4 16.7
2012-01-18 08:22:34 51°20.518 2°52.314 2.8 13 8 16.7
2012-01-18 08:22:39 51°20.536 2°52.317 3.7 13.2 5 16.8
2012-01-18 08:22:44 51°20.554 2°52.32 2.4 13.1 6 16.6
2012-01-18 08:22:49 51°20.572 2°52.322 2.6 13.1 6 16.5
2012-01-18 08:22:53 51°20.586 2°52.324 2.3 13.1 5 16.6
2012-01-18 08:22:59 51°20.609 2°52.326 1.4 13.1 3 16.4
2012-01-18 08:23:04 51°20.627 2°52.328 359.7 13 3 16.4
2012-01-18 08:23:09 51°20.645 2°52.33 -999 13 4 16.2
2012-01-18 08:23:14 51°20.663 2°52.332 0.3 13 4 15.8
2012-01-18 08:23:19 51°20.681 2°52.335 0.8 13.1 5 16.3
2012-01-18 08:23:25 51°20.703 2°52.338 1.3 13.2 6 16.3
2012-01-18 08:23:29 51°20.717 2°52.34 2 13.2 5 16.3
2012-01-18 08:23:34 51°20.735 2°52.343 2.6 13.3 7 16.4
2012-01-18 08:23:39 51°20.753 2°52.345 2.8 13.2 5 16.3
2012-01-18 08:23:44 51°20.772 2°52.349 1.8 13.2 5 16.2
2012-01-18 08:23:49 51°20.79 2°52.351 1.5 13.3 5 16.4
2012-01-18 08:23:55 51°20.812 2°52.353 0.8 13.3 3 16.4
2012-01-18 08:23:59 51°20.827 2°52.356 1.5 13.3 5 16.4
2012-01-18 08:24:04 51°20.845 2°52.357 1.3 13.2 3 16.6
2012-01-18 08:24:09 51°20.863 2°52.36 0.1 13.2 5 16.6
2012-01-18 08:24:14 51°20.882 2°52.361 0.7 13.2 3 16.5
2012-01-18 08:24:19 51°20.9 2°52.364 0.1 13.2 5 16.8
2012-01-18 08:24:24 51°20.918 2°52.366 0.1 13.1 5 17
2012-01-18 08:24:29 51°20.936 2°52.368 1.7 13.3 4 16.7
2012-01-18 08:24:34 51°20.955 2°52.37 0.3 13.2 4 16.8
2012-01-18 08:24:39 51°20.973 2°52.372 0.4 13.2 4 16.9
2012-01-18 08:24:45 51°20.995 2°52.374 359.7 13.2 3 17.4
2012-01-18 08:24:49 51°21.009 2°52.377 0.1 13.2 6 17.8
2012-01-18 08:24:54 51°21.028 2°52.378 0.1 13.2 2 17.8
2012-01-18 08:24:59 51°21.046 2°52.379 358.8 13.2 2 17.9
2012-01-18 08:25:04 51°21.064 2°52.381 359.3 13.2 2 18
2012-01-18 08:25:09 51°21.083 2°52.382 358.9 13.2 3 18.4
2012-01-18 08:25:14 51°21.101 2°52.383 359 13.3 2 18.3
2012-01-18 08:25:19 51°21.119 2°52.384 358.7 13.2 2 18.4
2012-01-18 08:25:24 51°21.137 2°52.386 358.5 13.2 3 18.9
2012-01-18 08:25:29 51°21.156 2°52.387 357.9 13.2 1 18.8
2012-01-18 08:25:33 51°21.17 2°52.388 358 13.3 3 18.8
2012-01-18 08:25:39 51°21.192 2°52.391 359.1 13.2 4 19.1
2012-01-18 08:25:44 51°21.21 2°52.392 0.1 13.3 4 19.1
2012-01-18 08:25:49 51°21.229 2°52.395 0.5 13.2 4 19.2
2012-01-18 08:25:54 51°21.247 2°52.398 1 13.1 6 19.5
2012-01-18 08:25:59 51°21.265 2°52.4 1.1 13.3 5 19.6
2012-01-18 08:26:04 51°21.284 2°52.402 1.9 13.3 5 19.6
2012-01-18 08:26:09 51°21.302 2°52.405 0.8 13.3 5 19.6
2012-01-18 08:26:14 51°21.321 2°52.406 1.5 13.4 3 19.4
2012-01-18 08:26:19 51°21.339 2°52.41 0.4 13.4 5 19.6
2012-01-18 08:26:24 51°21.357 2°52.411 0.1 13.4 4 19.8
2012-01-18 08:26:29 51°21.376 2°52.414 0.4 13.4 4 19.9
2012-01-18 08:26:34 51°21.395 2°52.417 1.7 13.6 5 20
2012-01-18 08:26:40 51°21.417 2°52.42 1.6 13.4 4 20.1
2012-01-18 08:26:44 51°21.432 2°52.423 1.3 13.5 7 20.5
2012-01-18 08:26:49 51°21.45 2°52.426 2.1 13.6 6 20.5
2012-01-18 08:26:54 51°21.469 2°52.429 2.3 13.5 7 20.8
2012-01-18 08:26:59 51°21.488 2°52.432 2.1 13.5 5 21
2012-01-18 08:27:04 51°21.506 2°52.437 2.9 13.5 8 21.2
2012-01-18 08:27:09 51°21.525 2°52.44 3.2 13.4 8 21.4
2012-01-18 08:27:14 51°21.543 2°52.445 4.4 13.4 10 21.7
2012-01-18 08:27:19 51°21.562 2°52.448 3.6 13.5 6 21.7
2012-01-18 08:27:25 51°21.584 2°52.454 3.2 13.5 9 22
2012-01-18 08:27:29 51°21.599 2°52.456 3.8 13.5 7 22.1
2012-01-18 08:27:34 51°21.618 2°52.459 3.4 13.6 6 22.3
2012-01-18 08:27:39 51°21.637 2°52.461 0.8 13.6 4 22.5
2012-01-18 08:27:45 51°21.659 2°52.464 0.7 13.6 5 22.7
2012-01-18 08:27:49 51°21.674 2°52.465 359.7 13.4 2 22.7
2012-01-18 08:27:54 51°21.692 2°52.468 359 13.5 4 22.8
2012-01-18 08:27:59 51°21.711 2°52.47 358.1 13.3 3 23
2012-01-18 08:28:04 51°21.729 2°52.473 359 13.4 5 23.4
2012-01-18 08:28:09 51°21.748 2°52.474 358.6 13.5 3 23.5
2012-01-18 08:28:15 51°21.77 2°52.476 358.7 13.6 4 24.1
2012-01-18 08:28:19 51°21.785 2°52.477 358 13.3 3 24
2012-01-18 08:28:24 51°21.804 2°52.479 357.9 13.5 3 24.4
2012-01-18 08:28:29 51°21.822 2°52.48 357.4 13.4 2 24.5
2012-01-18 08:28:34 51°21.841 2°52.482 357.3 13.4 3 24.8
2012-01-18 08:28:39 51°21.86 2°52.482 357.2 13.4 2 25.1
2012-01-18 08:28:44 51°21.878 2°52.483 356.5 13.4 2 25.3
2012-01-18 08:28:49 51°21.897 2°52.485 357.4 13.4 3 25.5
2012-01-18 08:28:54 51°21.915 2°52.487 357.4 13.4 4 25.7
2012-01-18 08:28:59 51°21.934 2°52.487 358 13.3 2 25.8
2012-01-18 08:29:05 51°21.956 2°52.491 358.5 13.4 6 25.8
2012-01-18 08:29:09 51°21.971 2°52.492 358.8 13.2 4 26
2012-01-18 08:29:14 51°21.99 2°52.495 359.4 13.4 6 26.2
2012-01-18 08:29:19 51°22.008 2°52.498 0.3 13.6 6 26.1
2012-01-18 08:29:25 51°22.031 2°52.502 0.5 13.5 6 26.3
2012-01-18 08:29:29 51°22.046 2°52.504 0.8 13.4 6 26.1
2012-01-18 08:29:34 51°22.064 2°52.506 0.3 13.5 4 26
2012-01-18 08:29:39 51°22.083 2°52.509 359.6 13.6 5 26.4
2012-01-18 08:29:44 51°22.102 2°52.51 358.6 13.5 3 26.3
2012-01-18 08:29:49 51°22.121 2°52.512 358.9 13.6 5 26.2
2012-01-18 08:29:53 51°22.135 2°52.514 359 13.6 3 26
2012-01-18 08:29:59 51°22.158 2°52.515 357.7 13.5 3 25.9
2012-01-18 08:30:04 51°22.177 2°52.517 357.9 13.5 3 26.2
2012-01-18 08:30:09 51°22.196 2°52.518 357.3 13.6 2 26
2012-01-18 08:30:14 51°22.215 2°52.52 358.2 13.6 3 26
2012-01-18 08:30:19 51°22.233 2°52.523 358.3 13.5 4 26
2012-01-18 08:30:25 51°22.256 2°52.527 359.7 13.6 7 26
2012-01-18 08:30:29 51°22.271 2°52.528 0.3 13.5 4 26.1
2012-01-18 08:30:34 51°22.289 2°52.532 0.7 13.6 8 26
2012-01-18 08:30:39 51°22.308 2°52.535 2.1 13.5 6 25.9
2012-01-18 08:30:44 51°22.326 2°52.539 2.5 13.6 8 25.8
2012-01-18 08:30:49 51°22.346 2°52.543 2.7 13.7 7 25.6
2012-01-18 08:30:54 51°22.364 2°52.547 4 13.6 8 25.3
2012-01-18 08:30:59 51°22.383 2°52.551 3.4 13.6 8 25.4
2012-01-18 08:31:04 51°22.401 2°52.555 2.3 13.6 7 25.2
2012-01-18 08:31:09 51°22.42 2°52.559 3.4 13.6 9 25.3
2012-01-18 08:31:14 51°22.439 2°52.562 1.6 13.5 5 25.2
2012-01-18 08:31:19 51°22.458 2°52.565 2.5 13.6 5 25
2012-01-18 08:31:24 51°22.476 2°52.568 1.1 13.6 6 25
2012-01-18 08:31:29 51°22.495 2°52.57 1.5 13.6 5 24.7
2012-01-18 08:31:34 51°22.514 2°52.574 1.2 13.6 6 24.9
2012-01-18 08:31:39 51°22.533 2°52.576 0.8 13.5 5 24.9
2012-01-18 08:31:45 51°22.555 2°52.579 0.9 13.5 4 24.8
2012-01-18 08:31:49 51°22.57 2°52.581 359.7 13.5 3 24.8
2012-01-18 08:31:54 51°22.589 2°52.583 359.7 13.5 3 25
2012-01-18 08:31:59 51°22.607 2°52.584 359.2 13.4 3 24.8
2012-01-18 08:32:05 51°22.629 2°52.587 358.6 13.4 4 24.7
2012-01-18 08:32:09 51°22.644 2°52.59 0.3 13.5 6 24.6
2012-01-18 08:32:14 51°22.663 2°52.593 1.5 13.6 6 24.4
2012-01-18 08:32:19 51°22.682 2°52.598 3.4 13.8 9 24.7
2012-01-18 08:32:24 51°22.701 2°52.602 4.5 13.7 8 24.7
2012-01-18 08:32:29 51°22.719 2°52.608 5.9 13.7 11 24.4
2012-01-18 08:32:34 51°22.738 2°52.614 7 13.8 11 25.1
2012-01-18 08:32:39 51°22.757 2°52.619 6.8 13.7 10 24.9
2012-01-18 08:32:45 51°22.779 2°52.626 8.7 13.8 13 25.5
2012-01-18 08:32:49 51°22.794 2°52.629 6 13.6 7 25.3
2012-01-18 08:32:54 51°22.812 2°52.635 6.7 13.7 11 25.2
2012-01-18 08:32:59 51°22.831 2°52.639 5.5 13.6 8 25.4
2012-01-18 08:33:05 51°22.853 2°52.645 5.6 13.6 9 25.2
2012-01-18 08:33:09 51°22.869 2°52.648 4.5 13.6 8 25.2
2012-01-18 08:33:14 51°22.887 2°52.652 4.2 13.6 7 25.1
2012-01-18 08:33:20 51°22.91 2°52.657 4.4 13.6 8 24.8
2012-01-18 08:33:25 51°22.928 2°52.66 3.6 13.5 6 24.6
2012-01-18 08:33:29 51°22.943 2°52.662 1.8 13.5 4 24.4
2012-01-18 08:33:34 51°22.962 2°52.665 2.4 13.6 6 24.2
2012-01-18 08:33:39 51°22.98 2°52.668 1.8 13.5 6 23.5
2012-01-18 08:33:45 51°23.003 2°52.672 3.3 13.6 6 24
2012-01-18 08:33:49 51°23.018 2°52.674 2.4 13.4 5 24.9
2012-01-18 08:33:54 51°23.037 2°52.678 3.1 13.6 7 24.9
2012-01-18 08:33:59 51°23.055 2°52.682 2.4 13.5 6 25.2
2012-01-18 08:34:05 51°23.078 2°52.687 3 13.5 10 25.1
2012-01-18 08:34:09 51°23.093 2°52.69 5.2 13.6 7 24.7
2012-01-18 08:34:14 51°23.112 2°52.693 4.1 13.6 7 24.3
2012-01-18 08:34:19 51°23.13 2°52.698 4.1 13.8 9 23.7
2012-01-18 08:34:25 51°23.153 2°52.703 6.2 13.7 8 23.7
2012-01-18 08:34:29 51°23.168 2°52.706 5.3 13.6 6 23.3
2012-01-18 08:34:34 51°23.186 2°52.712 5.3 13.6 10 22.8
2012-01-18 08:34:39 51°23.205 2°52.715 5 13.6 7 21.7
2012-01-18 08:34:45 51°23.227 2°52.722 5.3 13.7 10 20.9
2012-01-18 08:34:49 51°23.242 2°52.724 5.9 13.7 7 20.7
2012-01-18 08:34:54 51°23.261 2°52.73 5.5 13.9 11 21.5
2012-01-18 08:34:59 51°23.28 2°52.735 6.3 13.7 9 23.2
2012-01-18 08:35:05 51°23.302 2°52.742 6.3 13.7 11 22.9
2012-01-18 08:35:09 51°23.317 2°52.746 8.8 13.8 12 22.8
2012-01-18 08:35:14 51°23.336 2°52.752 7.9 13.6 11 22
2012-01-18 08:35:19 51°23.354 2°52.758 9.6 13.6 12 21.3
2012-01-18 08:35:25 51°23.376 2°52.766 9.5 13.6 13 22.4
2012-01-18 08:35:29 51°23.391 2°52.773 10.5 13.7 14 23.1
2012-01-18 08:35:34 51°23.409 2°52.779 11.7 13.7 14 22.7
2012-01-18 08:35:39 51°23.427 2°52.787 11.7 13.6 14 23
2012-01-18 08:35:45 51°23.45 2°52.795 11 13.5 13 23
2012-01-18 08:35:49 51°23.464 2°52.802 11.7 13.6 15 23
2012-01-18 08:35:53 51°23.478 2°52.808 12.7 13.7 15 22.8
2012-01-18 08:35:59 51°23.5 2°52.817 12.4 13.7 14 22.9
2012-01-18 08:36:05 51°23.523 2°52.827 13 13.8 16 22.7
2012-01-18 08:36:09 51°23.538 2°52.832 13 13.8 13 22.7
2012-01-18 08:36:14 51°23.556 2°52.841 11.7 13.8 15 23
2012-01-18 08:36:19 51°23.574 2°52.847 12.7 13.7 13 22.8
2012-01-18 08:36:24 51°23.592 2°52.856 12.2 13.7 16 22.9
2012-01-18 08:36:29 51°23.611 2°52.862 12.4 13.8 13 21.8
2012-01-18 08:36:34 51°23.63 2°52.869 12 13.7 14 22.5
2012-01-18 08:36:39 51°23.648 2°52.877 11.9 13.7 14 23.1
2012-01-18 08:36:44 51°23.667 2°52.884 12.2 13.7 14 22.6
2012-01-18 08:36:49 51°23.685 2°52.892 12.4 13.6 15 22
2012-01-18 08:36:53 51°23.7 2°52.897 12.4 13.7 13 22.5
2012-01-18 08:36:59 51°23.722 2°52.905 11.7 13.7 12 22.2
2012-01-18 08:37:04 51°23.74 2°52.914 13 13.6 15 22
2012-01-18 08:37:09 51°23.758 2°52.92 11.1 13.5 13 21.2
2012-01-18 08:37:14 51°23.777 2°52.926 11.4 13.6 12 21.7
2012-01-18 08:37:19 51°23.795 2°52.932 10.2 13.6 12 22.1
2012-01-18 08:37:24 51°23.814 2°52.937 8.7 13.5 10 21.8
2012-01-18 08:37:29 51°23.832 2°52.942 8.3 13.5 10 21.7
2012-01-18 08:37:34 51°23.851 2°52.948 6.4 13.4 11 20.1
2012-01-18 08:37:39 51°23.869 2°52.954 8.4 13.4 12 19.5
2012-01-18 08:37:45 51°23.891 2°52.959 8.9 13.4 8 20.5
2012-01-18 08:37:49 51°23.906 2°52.963 6.4 13.4 9 20.9
2012-01-18 08:37:54 51°23.924 2°52.968 7.3 13.5 11 20.7
2012-01-18 08:37:59 51°23.943 2°52.975 8.8 13.6 12 18.9
2012-01-18 08:38:05 51°23.965 2°52.98 7.1 13.4 8 19.4
2012-01-18 08:38:09 51°23.98 2°52.985 9.4 13.7 14 18
2012-01-18 08:38:14 51°23.998 2°52.988 7 13.5 6 19.2
2012-01-18 08:38:19 51°24.017 2°52.995 9 13.6 13 19.4
2012-01-18 08:38:25 51°24.039 2°53 7.6 13.5 8 19
2012-01-18 08:38:29 51°24.054 2°53.004 6.4 13.4 10 18.7
2012-01-18 08:38:34 51°24.072 2°53.009 7.8 13.6 10 19
2012-01-18 08:38:39 51°24.091 2°53.013 7.3 13.4 9 19.4
2012-01-18 08:38:45 51°24.113 2°53.018 6.5 13.5 8 19.7
2012-01-18 08:38:49 51°24.128 2°53.022 5.6 13.6 8 19.9
2012-01-18 08:38:54 51°24.147 2°53.026 6.6 13.6 8 19.7
2012-01-18 08:38:59 51°24.165 2°53.031 6.5 13.6 8 19.9
2012-01-18 08:39:04 51°24.184 2°53.035 6.3 13.5 9 20.4
2012-01-18 08:39:09 51°24.203 2°53.04 5.7 13.6 9 20.9
2012-01-18 08:39:14 51°24.222 2°53.043 6.5 13.5 6 20.3
2012-01-18 08:39:19 51°24.24 2°53.049 5.9 13.5 10 20.2
2012-01-18 08:39:24 51°24.258 2°53.052 8.3 13.4 7 20.1
2012-01-18 08:39:29 51°24.277 2°53.058 7.5 13.3 10 20.4
2012-01-18 08:39:34 51°24.295 2°53.064 7.8 13.3 12 19
2012-01-18 08:39:39 51°24.313 2°53.069 8.8 13.4 11 17.1
2012-01-18 08:39:44 51°24.331 2°53.076 11.2 13.4 13 18.3
2012-01-18 08:39:49 51°24.349 2°53.082 10.4 13.3 12 19.4
2012-01-18 08:39:54 51°24.367 2°53.09 10.3 13.4 13 20.2
2012-01-18 08:39:59 51°24.385 2°53.097 13 13.4 13 18.2
2012-01-18 08:40:04 51°24.404 2°53.103 12.6 13.6 14 18.9
2012-01-18 08:40:09 51°24.422 2°53.109 12.6 13.6 13 18.8
2012-01-18 08:40:14 51°24.441 2°53.117 11.4 13.6 15 19.6
2012-01-18 08:40:19 51°24.459 2°53.123 13.2 13.4 11 19.9
2012-01-18 08:40:25 51°24.481 2°53.131 11 13.4 13 20.9
2012-01-18 08:40:29 51°24.495 2°53.137 11.1 13.4 15 20.7
2012-01-18 08:40:34 51°24.513 2°53.144 12.3 13.5 14 20.6
2012-01-18 08:40:39 51°24.532 2°53.149 12.2 13.5 10 20.7
2012-01-18 08:40:44 51°24.55 2°53.155 10.2 13.4 12 20.6
2012-01-18 08:40:49 51°24.568 2°53.159 9.3 13.4 8 20.2
2012-01-18 08:40:54 51°24.587 2°53.165 8.8 13.4 10 20.9
2012-01-18 08:40:59 51°24.605 2°53.168 7.7 13.4 8 21.8
2012-01-18 08:41:04 51°24.623 2°53.172 7 13.4 7 21.9
2012-01-18 08:41:09 51°24.641 2°53.178 6.6 13.4 10 22.2
2012-01-18 08:41:14 51°24.659 2°53.181 7.6 13.2 8 21.8
2012-01-18 08:41:19 51°24.677 2°53.188 7.3 13 11 22
2012-01-18 08:41:24 51°24.696 2°53.193 9.5 13.3 11 21.4
2012-01-18 08:41:29 51°24.714 2°53.199 11.7 13.4 12 19.5
2012-01-18 08:41:34 51°24.732 2°53.205 10.9 13.4 11 19
2012-01-18 08:41:39 51°24.75 2°53.211 10.2 13.5 11 19.7
2012-01-18 08:41:44 51°24.769 2°53.216 9.3 13.5 10 20.3
2012-01-18 08:41:49 51°24.787 2°53.221 9 13.5 10 20.5
2012-01-18 08:41:55 51°24.81 2°53.227 7.6 13.6 10 20.5
2012-01-18 08:41:59 51°24.824 2°53.23 8.1 13.5 7 20.3
2012-01-18 08:42:04 51°24.843 2°53.235 6.2 13.5 10 20.2
2012-01-18 08:42:09 51°24.861 2°53.239 6.7 13.5 9 19.8
2012-01-18 08:42:14 51°24.88 2°53.244 8.1 13.5 9 19
2012-01-18 08:42:19 51°24.898 2°53.248 6.3 13.5 8 19.9
2012-01-18 08:42:24 51°24.917 2°53.253 5.9 13.4 8 20.5
2012-01-18 08:42:29 51°24.935 2°53.257 5.5 13.3 8 21.4
2012-01-18 08:42:34 51°24.953 2°53.261 5.9 13.4 9 21.5
2012-01-18 08:42:39 51°24.972 2°53.267 6.3 13.4 10 22
2012-01-18 08:42:45 51°24.994 2°53.271 8.9 13.4 8 22
2012-01-18 08:42:49 51°25.008 2°53.276 7.9 13.4 9 22.2
2012-01-18 08:42:54 51°25.027 2°53.28 7.1 13.3 10 22.2
2012-01-18 08:42:59 51°25.045 2°53.286 8.1 13.3 11 22.1
2012-01-18 08:43:05 51°25.067 2°53.293 9.7 13.4 11 21.9
2012-01-18 08:43:09 51°25.081 2°53.298 9.4 13.4 11 22.2
2012-01-18 08:43:14 51°25.1 2°53.306 11.4 13.5 14 22.9
2012-01-18 08:43:19 51°25.118 2°53.311 11.6 13.5 10 23.2
2012-01-18 08:43:24 51°25.136 2°53.32 12.1 13.6 16 23.7
2012-01-18 08:43:29 51°25.154 2°53.324 9.8 13.4 9 24
2012-01-18 08:43:34 51°25.172 2°53.333 12.2 13.4 16 23.9
2012-01-18 08:43:39 51°25.19 2°53.338 11.1 13.4 11 24.1
2012-01-18 08:43:44 51°25.209 2°53.345 11.7 13.5 13 24.2
2012-01-18 08:43:49 51°25.227 2°53.351 11.2 13.4 10 24.4
2012-01-18 08:43:54 51°25.245 2°53.357 10.1 13.5 12 24.3
2012-01-18 08:43:59 51°25.264 2°53.362 9.5 13.5 10 24
2012-01-18 08:44:04 51°25.282 2°53.369 9.3 13.5 13 24.3
2012-01-18 08:44:09 51°25.3 2°53.374 8.2 13.4 9 24.3
2012-01-18 08:44:14 51°25.319 2°53.38 10.2 13.4 12 24.1
2012-01-18 08:44:19 51°25.337 2°53.386 8.8 13.5 11 24.8
2012-01-18 08:44:25 51°25.359 2°53.392 9.6 13.4 10 24.6
2012-01-18 08:44:29 51°25.373 2°53.396 8.7 13.4 9 24.5
2012-01-18 08:44:34 51°25.391 2°53.402 7.9 13.4 12 24.7
2012-01-18 08:44:39 51°25.409 2°53.409 9.5 13.3 13 25.2
2012-01-18 08:44:44 51°25.427 2°53.416 10.8 13.3 14 24.9
2012-01-18 08:44:49 51°25.446 2°53.421 11.5 13.4 13 24.9
2012-01-18 08:44:54 51°25.464 2°53.427 9.5 13.5 11 25.3
2012-01-18 08:44:59 51°25.483 2°53.433 9.5 13.5 11 25.8
2012-01-18 08:45:04 51°25.501 2°53.438 9.2 13.5 11 26.1
2012-01-18 08:45:09 51°25.52 2°53.446 10.1 13.7 14 26.4
2012-01-18 08:45:14 51°25.538 2°53.453 11.3 13.7 14 26.2
2012-01-18 08:45:19 51°25.557 2°53.459 12.4 13.7 11 26.3
2012-01-18 08:45:25 51°25.578 2°53.468 10.4 13.6 14 26.6
2012-01-18 08:45:29 51°25.593 2°53.472 11.1 13.5 12 27.1
2012-01-18 08:45:34 51°25.611 2°53.48 10.3 13.5 15 27.3
2012-01-18 08:45:39 51°25.63 2°53.484 10.7 13.5 11 27.1
2012-01-18 08:45:44 51°25.648 2°53.491 9.2 13.4 13 27.3
2012-01-18 08:45:49 51°25.666 2°53.497 9.2 13.3 12 27.7
2012-01-18 08:45:54 51°25.684 2°53.503 9.6 13.4 12 27.7
2012-01-18 08:45:59 51°25.703 2°53.508 9.1 13.5 11 28.1
2012-01-18 08:46:04 51°25.722 2°53.514 8.4 13.6 11 28.3
2012-01-18 08:46:09 51°25.74 2°53.518 7.7 13.5 8 28.3
2012-01-18 08:46:14 51°25.758 2°53.523 7.1 13.5 10 28.4
2012-01-18 08:46:19 51°25.777 2°53.528 7.2 13.5 10 28.3
2012-01-18 08:46:25 51°25.799 2°53.534 7.9 13.5 10 28.4
2012-01-18 08:46:29 51°25.814 2°53.538 7.4 13.4 10 29.3
2012-01-18 08:46:34 51°25.832 2°53.544 7 13.5 11 29.7
2012-01-18 08:46:40 51°25.854 2°53.549 8.1 13.5 8 29.9
2012-01-18 08:46:45 51°25.873 2°53.554 7.1 13.5 8 29.8
2012-01-18 08:46:49 51°25.887 2°53.56 7 13.6 13 30.1
2012-01-18 08:46:54 51°25.906 2°53.562 7.1 13.5 6 30.2
2012-01-18 08:46:59 51°25.924 2°53.571 9 13.7 13 30.7
2012-01-18 08:47:05 51°25.947 2°53.575 9.1 13.7 8 31.2
2012-01-18 08:47:09 51°25.962 2°53.581 8.1 13.6 12 31.6
2012-01-18 08:47:14 51°25.98 2°53.588 10.2 13.7 13 31.7
2012-01-18 08:47:20 51°26.002 2°53.597 11.6 13.7 14 31.7
2012-01-18 08:47:25 51°26.021 2°53.604 11.9 13.7 15 32.1
2012-01-18 08:47:29 51°26.036 2°53.61 11.9 13.7 14 32.6
2012-01-18 08:47:34 51°26.054 2°53.616 11.2 13.6 13 32.6
2012-01-18 08:47:39 51°26.072 2°53.624 12 13.6 11 33
2012-01-18 08:47:45 51°26.094 2°53.63 9.9 13.5 11 33.2
2012-01-18 08:47:49 51°26.109 2°53.636 9.6 13.5 12 33.1
2012-01-18 08:47:54 51°26.127 2°53.64 9.7 13.3 8 33
2012-01-18 08:47:59 51°26.145 2°53.647 7.4 13.5 15 33.3
2012-01-18 08:48:05 51°26.167 2°53.653 10.1 13.4 10 33.1
2012-01-18 08:48:09 51°26.182 2°53.659 9.1 13.4 12 33.4
2012-01-18 08:48:14 51°26.2 2°53.665 10.2 13.5 11 33.6
2012-01-18 08:48:19 51°26.218 2°53.672 10.4 13.4 15 33.6
2012-01-18 08:48:25 51°26.24 2°53.679 11.2 13.5 11 33.4
2012-01-18 08:48:29 51°26.255 2°53.687 11.7 13.7 16 33.7
2012-01-18 08:48:35 51°26.277 2°53.693 10 13.4 10 33.8
2012-01-18 08:48:39 51°26.291 2°53.7 11 13.7 15 34.1
2012-01-18 08:48:44 51°26.31 2°53.703 8.5 13.4 6 34.5
2012-01-18 08:48:49 51°26.328 2°53.711 8 13.4 14 34.4
2012-01-18 08:48:54 51°26.346 2°53.717 11 13.4 11 34.6
2012-01-18 08:49:00 51°26.368 2°53.724 8.9 13.5 13 34.9
2012-01-18 08:49:05 51°26.386 2°53.73 8.8 13.5 12 35.1
2012-01-18 08:49:09 51°26.401 2°53.736 9.8 13.5 13 34.7
2012-01-18 08:49:13 51°26.416 2°53.74 10.1 13.5 12 34.1
2012-01-18 08:49:19 51°26.438 2°53.746 8.8 13.5 11 33.7
2012-01-18 08:49:25 51°26.46 2°53.753 8.6 13.6 11 34.1
2012-01-18 08:49:29 51°26.475 2°53.757 7.9 13.4 9 33.8
2012-01-18 08:49:34 51°26.493 2°53.763 8.4 13.5 13 34
2012-01-18 08:49:39 51°26.511 2°53.768 7.1 13.4 12 34.3
2012-01-18 08:49:45 51°26.533 2°53.777 9.2 13.6 14 34.5
2012-01-18 08:49:49 51°26.548 2°53.779 9.6 13.5 8 34.1
2012-01-18 08:49:54 51°26.566 2°53.788 8.7 13.6 15 34.3
2012-01-18 08:50:00 51°26.589 2°53.792 9.4 13.5 6 34.3
2012-01-18 08:50:04 51°26.603 2°53.797 6.7 13.5 11 34.1
2012-01-18 08:50:09 51°26.622 2°53.802 7.2 13.5 10 34.1
2012-01-18 08:50:13 51°26.636 2°53.807 7.1 13.5 12 34.1
2012-01-18 08:50:19 51°26.658 2°53.814 7.3 13.6 10 33.7
2012-01-18 08:50:24 51°26.677 2°53.819 8.1 13.6 9 33.4
2012-01-18 08:50:29 51°26.695 2°53.827 7.9 13.6 13 33.3
2012-01-18 08:50:34 51°26.714 2°53.832 9.7 13.7 12 33.3
2012-01-18 08:50:39 51°26.733 2°53.839 8.6 13.8 12 33.1
2012-01-18 08:50:45 51°26.756 2°53.844 8.1 13.7 8 32.3
2012-01-18 08:50:49 51°26.771 2°53.851 8.1 13.8 13 31.8
2012-01-18 08:50:54 51°26.79 2°53.856 8.4 13.7 10 30.6
2012-01-18 08:51:00 51°26.812 2°53.866 9.4 13.7 15 29.5
2012-01-18 08:51:05 51°26.83 2°53.873 10.1 13.8 13 28.4
2012-01-18 08:51:09 51°26.845 2°53.878 11.2 13.8 14 28.4
2012-01-18 08:51:13 51°26.86 2°53.883 10.1 13.7 14 28.2
2012-01-18 08:51:19 51°26.882 2°53.893 11.7 13.7 14 28.3
2012-01-18 08:51:25 51°26.904 2°53.902 11 13.8 13 27.9
2012-01-18 08:51:29 51°26.919 2°53.908 12.2 13.7 16 27.4
2012-01-18 08:51:34 51°26.937 2°53.915 11.1 13.6 13 26.7
2012-01-18 08:51:39 51°26.956 2°53.922 10.7 13.6 12 26.1
2012-01-18 08:51:45 51°26.978 2°53.931 9.7 13.6 14 25.7
2012-01-18 08:51:49 51°26.992 2°53.936 10.5 13.7 13 25.6
2012-01-18 08:51:54 51°27.011 2°53.94 8 13.5 8 25.6
2012-01-18 08:51:59 51°27.03 2°53.946 6.6 13.7 14 25.2
2012-01-18 08:52:05 51°27.052 2°53.954 9.8 13.7 12 25.5
2012-01-18 08:52:09 51°27.067 2°53.958 6.7 13.7 10 25.7
2012-01-18 08:52:13 51°27.082 2°53.964 8 13.8 12 26
2012-01-18 08:52:19 51°27.105 2°53.968 7 13.7 8 25.8
2012-01-18 08:52:25 51°27.127 2°53.975 6.8 13.9 11 25.8
2012-01-18 08:52:29 51°27.142 2°53.978 4.8 13.7 6 25.9
2012-01-18 08:52:34 51°27.161 2°53.985 6.4 13.9 13 26.3
2012-01-18 08:52:39 51°27.179 2°53.987 6.3 13.6 5 26.1
2012-01-18 08:52:45 51°27.202 2°53.995 5.7 13.7 12 26.2
2012-01-18 08:52:49 51°27.217 2°53.998 6.6 13.7 7 26.2
2012-01-18 08:52:54 51°27.235 2°54.003 6.7 13.6 8 26.3
2012-01-18 08:53:00 51°27.258 2°54.009 5.1 13.6 10 26.3
2012-01-18 08:53:05 51°27.276 2°54.014 6.6 13.6 10 26.5
2012-01-18 08:53:09 51°27.291 2°54.017 6.1 13.5 7 26.5
2012-01-18 08:53:15 51°27.313 2°54.023 6.4 13.7 10 26.1
2012-01-18 08:53:19 51°27.328 2°54.027 6.2 13.7 9 26.5
2012-01-18 08:53:24 51°27.347 2°54.031 5.8 13.6 7 26.4
2012-01-18 08:53:29 51°27.366 2°54.036 4.9 13.8 9 26.2
2012-01-18 08:53:35 51°27.388 2°54.04 4.1 13.5 6 26
2012-01-18 08:53:39 51°27.403 2°54.046 6.6 13.6 10 26.6
2012-01-18 08:53:45 51°27.426 2°54.048 4 13.5 4 26.4
2012-01-18 08:53:49 51°27.441 2°54.052 3.5 13.7 9 25.5
2012-01-18 08:53:53 51°27.456 2°54.056 4.4 13.8 9 26
2012-01-18 08:53:59 51°27.479 2°54.06 3.5 13.6 6 26.7
2012-01-18 08:54:05 51°27.501 2°54.066 2.6 13.7 9 26.6
2012-01-18 08:54:09 51°27.517 2°54.069 4.7 13.8 9 26.8
2012-01-18 08:54:14 51°27.536 2°54.072 3.7 13.9 7 26.4
2012-01-18 08:54:19 51°27.555 2°54.077 4 13.8 8 26.7
2012-01-18 08:54:25 51°27.577 2°54.081 3.6 13.7 8 27
2012-01-18 08:54:29 51°27.592 2°54.084 2.5 13.5 7 26.9
2012-01-18 08:54:34 51°27.611 2°54.088 4.2 13.8 7 26.5
2012-01-18 08:54:40 51°27.634 2°54.095 3.7 13.9 10 26.9
2012-01-18 08:54:45 51°27.653 2°54.099 5.1 13.9 8 24
2012-01-18 08:54:49 51°27.668 2°54.103 5.6 14 9 25.4
2012-01-18 08:54:53 51°27.683 2°54.108 5.7 14 12 25.5
2012-01-18 08:54:59 51°27.706 2°54.113 6.7 14 9 22.8
2012-01-18 08:55:04 51°27.725 2°54.12 7 14.1 13 24.5
2012-01-18 08:55:09 51°27.744 2°54.126 8.3 14.1 12 24.4
2012-01-18 08:55:14 51°27.763 2°54.132 8.1 14 11 23.3
2012-01-18 08:55:19 51°27.783 2°54.138 7.4 14 10 24.3
2012-01-18 08:55:25 51°27.806 2°54.145 7.5 14.1 11 24.3
2012-01-18 08:55:29 51°27.821 2°54.148 7.7 13.9 10 23.8
2012-01-18 08:55:34 51°27.839 2°54.155 6.6 13.8 11 22.2
2012-01-18 08:55:39 51°27.859 2°54.161 8.8 14 7 22.2
2012-01-18 08:55:45 51°27.881 2°54.169 6.6 14 12 22.1
2012-01-18 08:55:49 51°27.897 2°54.173 8.4 14.2 14 23
2012-01-18 08:55:53 51°27.912 2°54.177 8.8 14.1 9 23.1
2012-01-18 08:55:59 51°27.935 2°54.186 8.8 14.2 13 21
2012-01-18 08:56:05 51°27.958 2°54.19 6.7 14 6 22.8
2012-01-18 08:56:09 51°27.973 2°54.197 6 13.9 12 23.5
2012-01-18 08:56:14 51°27.992 2°54.201 7.4 13.7 9 20.6
2012-01-18 08:56:19 51°28.011 2°54.208 8.8 13.9 13 21.8
2012-01-18 08:56:25 51°28.033 2°54.212 5.8 13.7 7 22.5
2012-01-18 08:56:29 51°28.048 2°54.218 6.3 13.7 12 22.5
2012-01-18 08:56:34 51°28.067 2°54.222 7.5 13.7 8 21.2
2012-01-18 08:56:39 51°28.086 2°54.226 6.4 13.6 9 21.9
2012-01-18 08:56:44 51°28.105 2°54.231 7.1 13.8 9 22.7
2012-01-18 08:56:49 51°28.124 2°54.235 6.1 13.8 8 23.3
2012-01-18 08:56:53 51°28.138 2°54.24 6 13.7 11 21.3
2012-01-18 08:56:59 51°28.161 2°54.247 8.3 13.8 11 22.4
2012-01-18 08:57:04 51°28.179 2°54.251 6.4 13.6 8 22.8
2012-01-18 08:57:09 51°28.198 2°54.257 6.2 13.6 11 23
2012-01-18 08:57:14 51°28.216 2°54.259 5 13.3 6 22.5
2012-01-18 08:57:19 51°28.235 2°54.264 5.9 13.7 11 23.4
2012-01-18 08:57:25 51°28.257 2°54.268 6.9 13.7 6 21.7
2012-01-18 08:57:29 51°28.272 2°54.273 7.2 13.6 9 22.9
2012-01-18 08:57:34 51°28.291 2°54.278 6.6 13.7 8 23.8
2012-01-18 08:57:40 51°28.314 2°54.284 6.4 13.8 10 23.6
2012-01-18 08:57:45 51°28.332 2°54.288 7.3 13.7 8 22.8
2012-01-18 08:57:49 51°28.347 2°54.294 6.6 13.6 11 21.8
2012-01-18 08:57:53 51°28.362 2°54.298 7.8 13.6 9 23.3
2012-01-18 08:57:59 51°28.384 2°54.303 6.7 13.4 10 22.8
2012-01-18 08:58:05 51°28.407 2°54.309 8 13.6 10 23.4
2012-01-18 08:58:09 51°28.421 2°54.312 7.8 13.4 7 23.6
2012-01-18 08:58:14 51°28.439 2°54.317 6.6 13.3 9 22.8
2012-01-18 08:58:19 51°28.457 2°54.321 5.1 13.3 7 23.3
2012-01-18 08:58:25 51°28.48 2°54.327 5.5 13.5 10 23.6
2012-01-18 08:58:29 51°28.495 2°54.329 6.4 13.6 8 24.7
2012-01-18 08:58:34 51°28.513 2°54.333 3.4 13.8 5 24.5
2012-01-18 08:58:39 51°28.532 2°54.337 4.9 13.6 6 24.4
2012-01-18 08:58:45 51°28.554 2°54.341 3.6 13.4 7 24.4
2012-01-18 08:58:49 51°28.569 2°54.346 4 13.5 10 25
2012-01-18 08:58:53 51°28.584 2°54.345 2.9 13.3 3 25.3
2012-01-18 08:58:59 51°28.606 2°54.353 4.6 13.6 11 25.6
2012-01-18 08:59:05 51°28.628 2°54.356 4.6 13.4 6 25.8
2012-01-18 08:59:09 51°28.643 2°54.36 4.7 13.6 10 26.1
2012-01-18 08:59:14 51°28.661 2°54.363 3.9 13.1 5 26
2012-01-18 08:59:19 51°28.68 2°54.368 3.8 13.5 11 26
2012-01-18 08:59:25 51°28.702 2°54.371 5.4 13.5 6 26.5
2012-01-18 08:59:29 51°28.717 2°54.377 4.5 13.4 9 26.6
2012-01-18 08:59:34 51°28.735 2°54.382 6 13.4 9 26.7
2012-01-18 08:59:39 51°28.753 2°54.389 6.6 13.4 12 26.9
2012-01-18 08:59:45 51°28.776 2°54.394 8.2 13.6 9 26.8
2012-01-18 08:59:49 51°28.791 2°54.399 6.9 13.5 11 26.9
2012-01-18 08:59:54 51°28.809 2°54.404 6.1 13.5 11 27
2012-01-18 08:59:59 51°28.828 2°54.409 7.8 13.6 8 27.2
2012-01-18 09:00:05 51°28.85 2°54.414 4.4 13.4 9 27
2012-01-18 09:00:09 51°28.864 2°54.419 6.6 13.5 12 27.4
2012-01-18 09:00:14 51°28.883 2°54.419 3.1 13.3 3 27.4
2012-01-18 09:00:19 51°28.901 2°54.426 5.2 13.5 12 27.6
2012-01-18 09:00:25 51°28.923 2°54.431 6.2 13.1 7 27.5
2012-01-18 09:00:29 51°28.937 2°54.435 6.6 13.2 10 27.4
2012-01-18 09:00:34 51°28.956 2°54.44 6.4 13.2 9 27.4
2012-01-18 09:00:40 51°28.978 2°54.447 7.4 13.7 11 27.7
2012-01-18 09:00:45 51°28.997 2°54.45 8.5 13.6 7 27.7
2012-01-18 09:00:49 51°29.011 2°54.455 6.1 13.6 10 28
2012-01-18 09:00:54 51°29.03 2°54.456 5.9 13.4 4 28.2
2012-01-18 09:00:59 51°29.048 2°54.462 4.9 13.4 10 28.1
2012-01-18 09:01:05 51°29.07 2°54.464 6.3 13.4 4 28.3
2012-01-18 09:01:09 51°29.084 2°54.466 1.9 13.4 3 28.2
2012-01-18 09:01:14 51°29.103 2°54.47 3 13.2 5 28.7
2012-01-18 09:01:19 51°29.121 2°54.469 0.6 13.3 359 28.8
2012-01-18 09:01:25 51°29.143 2°54.473 1.7 13.1 4 28.5
2012-01-18 09:01:29 51°29.158 2°54.473 -999 13.2 1 28.7
2012-01-18 09:01:34 51°29.176 2°54.475 0.1 13.5 4 29.1
2012-01-18 09:01:39 51°29.194 2°54.477 0.7 13.4 3 29.4
2012-01-18 09:01:45 51°29.217 2°54.479 0.8 13.2 3 29.5
2012-01-18 09:01:49 51°29.232 2°54.48 0.7 13.4 4 29.6
2012-01-18 09:01:54 51°29.25 2°54.481 358.8 13.4 2 29.9
2012-01-18 09:02:00 51°29.273 2°54.483 1 13.5 4 29.8
2012-01-18 09:02:05 51°29.292 2°54.484 0.3 13.4 2 29.9
2012-01-18 09:02:09 51°29.306 2°54.486 359.1 13.4 4 30.1
2012-01-18 09:02:13 51°29.321 2°54.487 0.3 13.4 -999 30.1
2012-01-18 09:02:19 51°29.343 2°54.487 359.1 13.2 1 30.3
2012-01-18 09:02:25 51°29.365 2°54.489 357.8 13.4 3 30.3
2012-01-18 09:02:29 51°29.38 2°54.489 359.4 13.4 1 30.7
2012-01-18 09:02:34 51°29.398 2°54.489 357.7 13.2 1 30.6
2012-01-18 09:02:39 51°29.417 2°54.491 359.3 13.3 3 31.1
2012-01-18 09:02:45 51°29.439 2°54.491 359.1 13.4 -999 31
2012-01-18 09:02:49 51°29.454 2°54.491 359 13.3 2 31.2
2012-01-18 09:02:54 51°29.472 2°54.492 357.3 13.1 -999 31.2
2012-01-18 09:03:00 51°29.494 2°54.493 359.3 13.4 2 31.2
2012-01-18 09:03:05 51°29.513 2°54.493 358.6 13.3 -999 30.9
2012-01-18 09:03:09 51°29.528 2°54.494 358.3 13.4 3 31.1
2012-01-18 09:03:14 51°29.546 2°54.495 358.6 13.3 2 31.5